• Join FlightAware (Why Join?)
  • Login
  • US Flag 
07:22PM EST


 

Airport Tracker/Info


-or-


 

Live Flight TrackerFlight Track Log ✈ ANO333 ✈ 05-Jul-2014 ✈ YPKU / KNX - YPDN / DRW

Flight Track Log - Related Links

Times and Time Zones

All times are in EDT time to prevent confusion due to time zone crossing. See the ANO333 flight status page for this flight to view local times or setup timezone preferences in your user account.

Time Position Orientation Groundspeed Altitude Reporting Facility
EDT Latitude Longitude Course Direction KTS MPH feet Rate Location/Type
02:50AM -15.4311 128.9385 33° Northeast 33,000  Level Aus ATC (Calculated)
02:51AM -15.3596 128.9858 33° Northeast 33,000 -1,380 Level Aus ATC (Calculated)
02:52AM -15.2903 129.0318 33° Northeast 33,000 -1,500 Level Aus ATC (Calculated)
02:54AM -15.1844 129.1021 33° Northeast  Level FlightAware Approximate
02:54AM -15.0822 129.1698 33° Northeast 33,000  Level Aus ATC (Calculated)
02:56AM -14.9836 129.2351 33° Northeast  Level FlightAware Approximate
02:56AM -14.8755 129.3067 212° Southwest 33,000  Level Aus ATC (Calculated)
02:58AM -14.7916 129.3621 33° Northeast  Level FlightAware Approximate
02:58AM -14.9919 129.2299 33° Northeast 443 510 22,600  Level Aus ATC (RADAR)
02:59AM -14.9140 129.2793 31° Northeast 439 505 23,900 1,560 Climbing Aus ATC (RADAR)
02:59AM -14.8623 129.3140 33° Northeast 444 511 24,600 1,380 Climbing Aus ATC (RADAR)
03:00AM -14.8009 129.3532 32° Northeast 445 512 25,400 1,380 Climbing Aus ATC (RADAR)
03:01AM -14.7127 129.4117 33° Northeast 455 524 26,600 1,620 Climbing Aus ATC (RADAR)
03:01AM -14.6716 129.4434 37° Northeast 450 518 27,400 1,680 Climbing Aus ATC (RADAR)
03:02AM -14.5865 129.5023 34° Northeast 445 512 28,700 1,500 Climbing Aus ATC (RADAR)
03:02AM -14.5461 129.5349 38° Northeast 444 511 29,300 1,560 Climbing Aus ATC (RADAR)
03:03AM -14.4884 129.5784 36° Northeast 441 507 30,300 1,500 Climbing Aus ATC (RADAR)
03:04AM -14.4160 129.6352 37° Northeast 437 503 31,300 1,380 Climbing Aus ATC (RADAR)
03:04AM -14.3514 129.6855 37° Northeast 437 503 32,300 1,080 Climbing Aus ATC (RADAR)
03:05AM -14.2712 129.7473 37° Northeast 433 498 33,000 420 Climbing Aus ATC (RADAR)
03:06AM -14.2034 129.7979 36° Northeast 451 519 33,000  Level Aus ATC (RADAR)
03:06AM -14.1779 129.8178 37° Northeast 458 527 33,000  Level Aus ATC (RADAR)
03:07AM -14.0906 129.8863 37° Northeast 475 547 33,000  Level Aus ATC (RADAR)
03:07AM -14.0911 129.8877 37° Northeast 471 542 33,000  Level FlightAware ADS-B (YPDN / DRW)
03:08AM -14.0296 129.9335 37° Northeast 472 543 33,000  Level Aus ATC (RADAR)
03:08AM -13.9514 129.9944 37° Northeast 472 543 33,000  Level Aus ATC (RADAR)
03:09AM -13.9270 130.0140 37° Northeast 471 542 33,000  Level FlightAware ADS-B (YPDN / DRW)
03:09AM -13.8747 130.0542 37° Northeast 471 542 33,000  Level FlightAware ADS-B (YPDN / DRW)
03:10AM -13.8234 130.0936 37° Northeast 471 542 33,000 -120 Level FlightAware ADS-B (YPDN / DRW)
03:10AM -13.7591 130.1416 37° Northeast 470 541 32,900 -1,200 Descending Aus ATC (RADAR)
03:10AM -13.7240 130.1699 37° Northeast 467 537 32,000 -2,400 Descending FlightAware ADS-B (YPDN / DRW)
03:11AM -13.6638 130.2161 37° Northeast 476 548 30,700 -2,340 Descending FlightAware ADS-B (YPDN / DRW)
03:12AM -13.6104 130.2571 37° Northeast 479 551 29,400 -2,640 Descending FlightAware ADS-B (YPDN / DRW)
03:12AM -13.5581 130.2970 37° Northeast 459 528 28,100 -2,520 Descending FlightAware ADS-B (YPDN / DRW)
03:13AM -13.5072 130.3361 37° Northeast 444 511 26,900 -2,340 Descending FlightAware ADS-B (YPDN / DRW)
03:13AM -13.4583 130.3736 37° Northeast 437 503 25,800 -2,340 Descending FlightAware ADS-B (YPDN / DRW)
03:14AM -13.4097 130.4108 37° Northeast 434 499 24,600 -2,340 Descending FlightAware ADS-B (YPDN / DRW)
03:14AM -13.3618 130.4475 37° Northeast 437 503 23,500 -2,340 Descending FlightAware ADS-B (YPDN / DRW)
03:15AM -13.3126 130.4850 37° Northeast 428 493 22,300 -2,340 Descending FlightAware ADS-B (YPDN / DRW)
03:15AM -13.2661 130.5204 37° Northeast 425 489 21,200 -2,220 Descending FlightAware ADS-B (YPDN / DRW)
03:16AM -13.2185 130.5569 37° Northeast 415 478 20,100 -2,220 Descending FlightAware ADS-B (YPDN / DRW)
03:16AM -13.1745 130.5903 37° Northeast 395 455 19,000 -2,100 Descending FlightAware ADS-B (YPDN / DRW)
03:17AM -13.1314 130.6234 37° Northeast 386 444 18,000 -2,100 Descending FlightAware ADS-B (YPDN / DRW)
03:17AM -13.0870 130.6571 37° Northeast 378 435 16,900 -2,100 Descending FlightAware ADS-B (YPDN / DRW)
03:18AM -13.0460 130.6884 37° Northeast 375 432 15,900 -2,040 Descending FlightAware ADS-B (YPDN / DRW)
03:18AM -13.0041 130.7203 37° Northeast 369 425 14,900 -1,920 Descending FlightAware ADS-B (YPDN / DRW)
03:19AM -12.9634 130.7513 37° Northeast 354 407 14,000 -1,920 Descending FlightAware ADS-B (YPDN / DRW)
03:19AM -12.9241 130.7813 37° Northeast 366 421 13,000 -1,920 Descending FlightAware ADS-B (YPDN / DRW)
03:20AM -12.8833 130.8124 37° Northeast 357 411 12,100 -1,920 Descending FlightAware ADS-B (YPDN / DRW)
03:20AM -12.8447 130.8417 37° Northeast 341 392 11,100 -1,860 Descending FlightAware ADS-B (YPDN / DRW)
03:21AM -12.7955 130.8793 37° Northeast 333 383 10,000 -1,740 Descending Aus ATC (RADAR)
03:21AM -12.7909 130.8825 37° Northeast 333 383 9,900 -1,740 Descending FlightAware ADS-B (YPDN / DRW)
03:21AM -12.7689 130.8992 37° Northeast 335 386 9,400 -1,800 Descending FlightAware ADS-B (YPDN / DRW)
03:22AM -12.7348 130.9251 37° Northeast 332 382 8,600 -1,860 Descending FlightAware ADS-B (YPDN / DRW)
03:22AM -12.7162 130.9393 37° Northeast 332 382 8,100 -1,800 Descending FlightAware ADS-B (YPDN / DRW)
03:22AM -12.6967 130.9540 37° Northeast 333 383 7,700 -1,620 Descending FlightAware ADS-B (YPDN / DRW)
03:22AM -12.6779 130.9682 37° Northeast 333 383 7,300 -1,800 Descending FlightAware ADS-B (YPDN / DRW)
03:23AM -12.6607 130.9813 37° Northeast 328 377 6,800 -1,800 Descending FlightAware ADS-B (YPDN / DRW)
03:23AM -12.6424 130.9953 37° Northeast 316 364 6,400 -1,320 Descending FlightAware ADS-B (YPDN / DRW)
03:23AM -12.6224 131.0106 37° Northeast 296 341 6,100 -840 Descending FlightAware ADS-B (YPDN / DRW)
03:24AM -12.5940 131.0321 37° Northeast 267 307 5,800 -720 Descending FlightAware ADS-B (YPDN / DRW)
03:24AM -12.5788 131.0436 37° Northeast 253 291 5,600 -780 Descending FlightAware ADS-B (YPDN / DRW)
03:24AM -12.5648 131.0533 30° Northeast 241 277 5,400 -900 Descending FlightAware ADS-B (YPDN / DRW)
03:24AM -12.5552 131.0582 25° Northeast 235 270 5,300 -1,200 Descending FlightAware ADS-B (YPDN / DRW)
03:25AM -12.5340 131.0659 19° North 234 269 4,800 -1,200 Descending FlightAware ADS-B (YPDN / DRW)
03:25AM -12.5188 131.0712 18° North 226 260 4,500 -1,200 Descending FlightAware ADS-B (YPDN / DRW)
03:25AM -12.5046 131.0729 354° North 218 251 4,200 -1,740 Descending FlightAware ADS-B (YPDN / DRW)
03:25AM -12.4937 131.0703 339° North 219 252 3,900 -1,680 Descending FlightAware ADS-B (YPDN / DRW)
03:26AM -12.4778 131.0594 314° West 223 257 3,400 -1,440 Descending FlightAware ADS-B (YPDN / DRW)
03:26AM -12.4695 131.0453 291° West 221 254 3,000 -1,260 Descending FlightAware ADS-B (YPDN / DRW)
03:26AM -12.4647 131.0288 287° West 215 247 2,700 -1,080 Descending FlightAware ADS-B (YPDN / DRW)
03:27AM -12.4558 131.0023 289° West 202 232 2,200 -1,020 Descending FlightAware ADS-B (YPDN / DRW)
03:27AM -12.4513 130.9892 289° West 182 209 2,000 -1,020 Descending FlightAware ADS-B (YPDN / DRW)
03:27AM -12.4474 130.9776 289° West 177 204 1,700 -1,020 Descending FlightAware ADS-B (YPDN / DRW)
03:27AM -12.4435 130.9662 289° West 169 194 1,500 -840 Descending FlightAware ADS-B (YPDN / DRW)
03:28AM -12.4402 130.9564 289° West 158 182 1,300 -720 Descending FlightAware ADS-B (YPDN / DRW)
03:28AM -12.4336 130.9368 289° West 142 163 1,000 -720 Descending FlightAware ADS-B (YPDN / DRW)
03:28AM -12.4301 130.9267 289° West 143 165 800 -1,080 Descending FlightAware ADS-B (YPDN / DRW)
03:28AM -12.4279 130.9197 290° West 135 155 600 -780 Descending FlightAware ADS-B (YPDN / DRW)
03:29AM -12.4223 130.9024 290° West 128 147 300 -540 Descending Aus ATC (RADAR)
03:29AM -12.4305 130.9277 290° West 129 148 300 -360 Level FlightAware ADS-B (YPDN / DRW)
03:30AM -12.4153 130.8827 289° West 83 96 100 -360 Descending FlightAware ADS-B (YPDN / DRW)